Gower, Missouri
Current Conditions -  °F | °C
As of 10:53 AM on Thursday 18 Dec 2014 (Local Time) from KSTJ Reporting Station
Light Snow Light Snow  
Wind Chill: 24°   Ceiling: 3200
Heat Index: 29°   Visibility: 4mi
Dew Point: 26°   Wind: 5mph
Humidity: 89%   Direction: 80°E
Pressure: 30.27"   Gusts: NA
Location:  39.61°N, 94.6°W
Report Text: KSTJ 181653Z 08004KT 4SM -SN BR FEW009 OVC032 M02/M03 A3027 RMK AO2 SLP258 P0000 T10171033
Loading
Personal Weather Stations






























Interactive Weather Map New forecast layout! Learn more

10-Day Weather Forecast

Advertisements
Track Severe Weather on mobile